createdAt,value
2022-12-18T00:03:30.434Z,87.36
2022-12-18T00:08:33.222Z,87.18
2022-12-18T00:13:36.436Z,87.26
2022-12-18T00:18:40.749Z,87.23
2022-12-18T00:23:45.495Z,87.05
2022-12-18T00:28:48.628Z,86.91
2022-12-18T00:33:55.282Z,86.92
2022-12-18T00:38:59.289Z,86.47
2022-12-18T00:44:03.092Z,86.79
2022-12-18T00:49:05.888Z,86.68
2022-12-18T00:54:08.942Z,86.75
2022-12-18T00:59:11.703Z,86.97
2022-12-18T01:04:14.612Z,86.81
2022-12-18T01:09:17.363Z,87.33
2022-12-18T01:14:20.115Z,87.11
2022-12-18T01:19:23.160Z,86.75
2022-12-18T01:24:25.982Z,86.93
2022-12-18T01:29:28.845Z,86.92
2022-12-18T01:34:31.675Z,86.81
2022-12-18T01:39:34.538Z,86.74
2022-12-18T01:45:02.955Z,86.68
2022-12-18T01:50:17.664Z,86.44
2022-12-18T01:55:23.536Z,86.27
2022-12-18T02:00:27.257Z,86.15
2022-12-18T02:05:54.009Z,85.82
2022-12-18T02:11:16.500Z,85.53
2022-12-18T02:16:45.650Z,85.38
2022-12-18T02:22:45.065Z,84.57
2022-12-18T02:27:47.824Z,84.98
2022-12-18T02:32:54.216Z,84.68
2022-12-18T02:37:57.683Z,84.59
2022-12-18T02:43:15.478Z,84.49
2022-12-18T02:48:20.440Z,84.66
2022-12-18T02:53:39.778Z,84.96
2022-12-18T02:59:01.264Z,84.55
2022-12-18T03:04:17.582Z,84.74
2022-12-18T03:09:23.846Z,84.69
2022-12-18T03:14:27.074Z,84.78
2022-12-18T03:19:30.739Z,84.92
2022-12-18T03:24:33.482Z,84.69
2022-12-18T03:29:47.986Z,84.86
2022-12-18T03:34:52.244Z,84.01
2022-12-18T03:39:54.939Z,83.89
2022-12-18T03:45:00.599Z,83.96
2022-12-18T03:50:27.946Z,83.97
2022-12-18T03:55:32.682Z,84.21
2022-12-18T04:00:35.579Z,84.11
2022-12-18T04:05:41.005Z,84.42
2022-12-18T04:10:45.916Z,84.32
2022-12-18T04:15:48.718Z,84.46
2022-12-18T04:20:51.870Z,84.35
2022-12-18T04:25:54.936Z,84.34
2022-12-18T04:30:57.734Z,84.42
2022-12-18T04:36:00.534Z,84.62
2022-12-18T04:41:03.374Z,84.72
2022-12-18T04:46:07.593Z,84.60
2022-12-18T04:51:10.677Z,84.54
2022-12-18T04:56:15.403Z,84.75
2022-12-18T05:01:19.013Z,84.52
2022-12-18T05:06:21.939Z,84.65
2022-12-18T05:11:24.679Z,84.45
2022-12-18T05:16:27.766Z,84.60
2022-12-18T05:21:30.572Z,84.27
2022-12-18T05:26:33.329Z,84.49
2022-12-18T05:31:39.805Z,84.43
2022-12-18T05:36:42.821Z,84.61
2022-12-18T05:41:45.560Z,84.51
2022-12-18T05:46:48.398Z,84.16
2022-12-18T05:51:51.506Z,84.57
2022-12-18T05:56:54.935Z,84.82
2022-12-18T06:02:00.053Z,84.62
2022-12-18T06:07:06.693Z,84.71
2022-12-18T06:12:09.411Z,84.98
2022-12-18T06:17:12.268Z,85.23
2022-12-18T06:22:15.047Z,85.33
2022-12-18T06:27:17.810Z,85.37
2022-12-18T06:32:20.554Z,85.63
2022-12-18T06:37:27.006Z,85.23
2022-12-18T06:42:29.806Z,86.04
2022-12-18T06:47:32.525Z,85.99
2022-12-18T06:52:35.289Z,85.76
2022-12-18T06:57:38.286Z,86.00
2022-12-18T07:02:41.795Z,86.02
2022-12-18T07:07:44.640Z,86.28
2022-12-18T07:12:49.072Z,85.91
2022-12-18T07:17:53.216Z,86.60
2022-12-18T07:22:57.052Z,86.61
2022-12-18T07:27:59.787Z,86.88
2022-12-18T07:33:02.852Z,86.94
2022-12-18T07:38:06.032Z,86.96
2022-12-18T07:43:08.787Z,86.99
2022-12-18T07:48:11.625Z,86.67
2022-12-18T07:53:15.433Z,86.41
2022-12-18T07:58:18.301Z,86.33
2022-12-18T08:03:21.156Z,86.28
2022-12-18T08:08:25.288Z,86.05
2022-12-18T08:13:28.498Z,85.85
2022-12-18T08:18:33.932Z,86.03
2022-12-18T08:23:42.313Z,85.96
2022-12-18T08:28:46.132Z,86.12
2022-12-18T08:33:50.998Z,85.79
2022-12-18T08:38:54.896Z,85.57
2022-12-18T08:44:36.280Z,85.41
2022-12-18T08:49:41.973Z,85.32
2022-12-18T08:54:44.715Z,85.38
2022-12-18T08:59:47.544Z,84.71
2022-12-18T09:04:56.958Z,84.58
2022-12-18T09:10:00.331Z,84.44
2022-12-18T09:15:03.567Z,84.84
2022-12-18T09:20:07.495Z,84.57
2022-12-18T09:25:10.918Z,84.14
2022-12-18T09:30:14.216Z,83.29
2022-12-18T09:35:18.994Z,83.01
2022-12-18T09:40:26.677Z,82.76
2022-12-18T09:45:30.371Z,82.95
2022-12-18T09:50:36.719Z,83.03
2022-12-18T09:55:45.323Z,82.80
2022-12-18T10:00:56.022Z,82.24
2022-12-18T10:06:34.239Z,82.35
2022-12-18T10:12:09.588Z,82.02
2022-12-18T10:18:01.937Z,82.08
2022-12-18T10:23:46.409Z,80.32
2022-12-18T10:28:53.101Z,80.39
2022-12-18T10:33:56.273Z,80.60
2022-12-18T10:39:21.253Z,79.18
2022-12-18T10:44:28.026Z,80.27
2022-12-18T10:49:33.187Z,80.87
2022-12-18T10:54:36.462Z,80.82
2022-12-18T10:59:56.098Z,80.83
2022-12-18T11:04:58.960Z,80.88
2022-12-18T11:10:07.012Z,80.41
2022-12-18T11:15:18.490Z,80.53
2022-12-18T11:20:33.893Z,80.96
2022-12-18T11:25:36.778Z,79.98
2022-12-18T11:30:39.823Z,79.01
2022-12-18T11:35:52.763Z,79.06
2022-12-18T11:41:48.123Z,78.68
2022-12-18T11:46:56.414Z,79.94
2022-12-18T11:52:19.941Z,79.54
2022-12-18T11:57:36.083Z,79.73
2022-12-18T12:03:36.809Z,80.28
2022-12-18T12:09:01.877Z,79.79
2022-12-18T12:14:42.026Z,79.45
2022-12-18T12:20:05.897Z,79.90
2022-12-18T12:25:28.687Z,79.76
2022-12-18T12:31:03.330Z,79.73
2022-12-18T12:36:24.019Z,79.40
2022-12-18T12:41:50.159Z,78.89
2022-12-18T12:46:53.469Z,79.64
2022-12-18T12:52:31.762Z,79.57
2022-12-18T12:57:37.734Z,79.74
2022-12-18T13:02:47.758Z,79.57
2022-12-18T13:07:56.313Z,79.74
2022-12-18T13:13:17.889Z,79.58
2022-12-18T13:18:26.664Z,80.04
2022-12-18T13:23:37.263Z,80.13
2022-12-18T13:28:49.043Z,79.78
2022-12-18T13:39:17.381Z,79.99
2022-12-18T14:15:29.598Z,80.83
2022-12-18T14:20:34.095Z,80.99
2022-12-18T14:25:37.274Z,80.89
2022-12-18T14:30:44.614Z,80.11
2022-12-18T14:36:01.751Z,80.59
2022-12-18T15:06:50.357Z,80.88
2022-12-18T16:06:40.376Z,81.73
2022-12-18T16:11:51.984Z,81.57
2022-12-18T16:17:02.184Z,81.61
2022-12-18T16:22:06.003Z,81.98
2022-12-18T16:27:20.295Z,81.99
2022-12-18T16:32:23.668Z,81.58
2022-12-18T16:52:51.145Z,81.88
2022-12-18T17:06:07.787Z,81.95
2022-12-18T17:11:10.633Z,81.99
2022-12-18T17:17:40.221Z,82.28
2022-12-18T17:22:49.937Z,82.13
2022-12-18T17:27:53.276Z,82.62
2022-12-18T17:32:56.327Z,82.64
2022-12-18T17:37:59.176Z,82.64
2022-12-18T17:43:02.353Z,82.59
2022-12-18T17:48:06.121Z,82.49
2022-12-18T17:54:06.213Z,82.75
2022-12-18T18:00:23.612Z,82.64
2022-12-18T18:05:28.577Z,82.68
2022-12-18T18:10:51.793Z,82.96
2022-12-18T18:15:58.381Z,82.98
2022-12-18T18:21:08.664Z,83.22
2022-12-18T18:26:13.235Z,82.95
2022-12-18T18:31:50.691Z,83.12
2022-12-18T18:36:53.677Z,83.05
2022-12-18T19:05:02.703Z,83.31
2022-12-18T19:10:07.072Z,83.32
2022-12-18T19:37:41.552Z,83.52
2022-12-18T20:04:49.011Z,83.86
2022-12-18T20:09:59.567Z,83.78
2022-12-18T20:15:08.589Z,83.82
2022-12-18T20:20:11.424Z,84.01
2022-12-18T20:25:17.859Z,84.14
2022-12-18T20:30:21.851Z,84.01
2022-12-18T20:35:28.076Z,84.02
2022-12-18T20:40:32.651Z,84.00
2022-12-18T20:45:35.854Z,84.03
2022-12-18T20:50:40.409Z,84.06
2022-12-18T20:55:43.538Z,83.85
2022-12-18T21:00:49.180Z,83.67
2022-12-18T21:05:53.221Z,83.98
2022-12-18T21:10:56.195Z,83.72
2022-12-18T21:16:01.185Z,83.82
2022-12-18T21:21:04.048Z,83.93
2022-12-18T21:26:21.012Z,83.68
2022-12-18T21:31:25.615Z,83.60
2022-12-18T21:36:29.932Z,83.67
2022-12-18T21:41:51.519Z,84.07
2022-12-18T21:47:04.570Z,84.09
2022-12-18T21:52:16.101Z,83.82
2022-12-18T21:57:18.879Z,83.65
2022-12-18T22:02:23.424Z,83.55
2022-12-18T22:07:27.581Z,83.83
2022-12-18T22:12:43.600Z,83.77
2022-12-18T22:17:47.895Z,83.42
2022-12-18T22:22:51.807Z,83.34
2022-12-18T22:28:13.409Z,83.45
2022-12-18T22:33:16.486Z,83.55
2022-12-18T22:38:19.192Z,83.57
2022-12-18T22:43:22.026Z,83.44
2022-12-18T22:48:24.754Z,83.32
2022-12-18T22:53:30.617Z,83.42
2022-12-18T22:58:33.832Z,83.27
2022-12-18T23:03:37.066Z,83.32
2022-12-18T23:08:40.091Z,83.42
2022-12-18T23:13:43.468Z,83.56
2022-12-18T23:18:46.340Z,83.79
2022-12-18T23:23:49.229Z,83.44
2022-12-18T23:28:53.502Z,83.44
2022-12-18T23:33:57.853Z,83.48
2022-12-18T23:39:00.960Z,83.81
2022-12-18T23:44:03.899Z,83.52
2022-12-18T23:49:07.068Z,83.48
2022-12-18T23:54:09.875Z,83.26
2022-12-18T23:59:12.682Z,83.28
